Torun, Poland

2:47 PM CEST on September 16, 2014 (GMT +0200)
Gniewkowo | Change Station
CLOSE
Current Station
Personal Weather Station
Location: Murzynko, KUJAWSKO-POMORSKIE
Elevation: 269 ft
Nearby Weather Stations

Elev 269 ft 52.86 °N, 18.47 °E | Updated 7 minutes ago

Clear
Clear
70.5 °F
Feels Like 77 °F
N
4.7
Wind Variable Wind from ESE
Gusts 6.7 mph

Today
High -- | Low -- °F
--% Chance of Precip.
Yesterday
High -- | Low -- °F
Precip. -- in
6:20 AM 6:59 PM
Last Quarter, 46% visible
Pressure 30.18 in
Visibility -9999.0 miles
Clouds
Heat Index 77 °F
Dew Point 54 °F
Humidity 55%
Rainfall 0.00 in
Snow Depth Not available.
UV Not available.
Pollen Not available.
Air Quality Not available.
Flu Activity Not available.
METAR EPBY 161230Z 07008KT 030V120 CAVOK 23/08 Q1022

More Conditions Fewer Conditions

Pressure 30.18 in
Visibility -9999.0 miles
Clouds
Heat Index 77 °F
Dew Point 54 °F
Humidity 55%
Rainfall 0.00 in
Snow Depth Not available.
UV Not available.
Pollen Not available.
Air Quality Not available.
Flu Activity Not available.
METAR EPBY 161230Z 07008KT 030V120 CAVOK 23/08 Q1022

More Conditions Fewer Conditions

10-Day Weather Forecast

Almanac

Astronomy

Sep. 16, 2014 Rise Set
Actual Time 6:20 AM CEST 6:59 PM CEST
Civil Twilight 5:45 AM CEST 7:33 PM CEST
Nautical Twilight 5:04 AM CEST 8:15 PM CEST
Astronomical Twilight 4:19 AM CEST 8:59 PM CEST
Moon 11:31 PM CEST 2:43 PM CEST
Length of Visible Light 13h 48m
Length of Day
12h 38m
Tomorrow will be 4m 8s shorter.
Last Quarter, 46% of the Moon is Illuminated
Today
Last Quarter
Sep 24
New
Oct 1
First Quarter
Oct 8
Full
Oct 15
Last Quarter

Yesterday's Extremes

Country Highs Country Lows

Community

WunderPhotos

Upload Photos

1,753,756 photos uploaded!

Nearby

Snow Depth

Not available.

Earthquake Activity

City Distance Mag. Time & Date
No recent earthquake activity has been reported nearby.
Minimum magnitude displayed is 2.5.

Coastal Water Temperatures

Place Temperature
No Stations Reporting

Nearby Weather Stations